createdAt,value
2017-06-10T00:01:02.733Z,3.30
2017-06-10T00:03:28.940Z,3.80
2017-06-10T00:05:55.059Z,4.50
2017-06-10T00:08:21.520Z,4.80
2017-06-10T00:10:47.794Z,3.30
2017-06-10T00:13:13.965Z,3.50
2017-06-10T00:15:40.135Z,5.33
2017-06-10T00:18:07.005Z,3.40
2017-06-10T00:20:33.507Z,4.27
2017-06-10T00:22:59.682Z,6.80
2017-06-10T00:25:25.814Z,6.00
2017-06-10T00:27:51.996Z,3.17
2017-06-10T00:30:18.145Z,3.73
2017-06-10T00:32:45.388Z,3.00
2017-06-10T00:35:11.600Z,3.43
2017-06-10T00:37:37.724Z,3.57
2017-06-10T00:40:03.902Z,3.53
2017-06-10T00:42:30.044Z,5.70
2017-06-10T00:44:56.596Z,3.87
2017-06-10T00:47:22.758Z,4.67
2017-06-10T00:49:48.932Z,4.00
2017-06-10T00:52:15.076Z,5.73
2017-06-10T00:54:41.360Z,4.73
2017-06-10T00:57:07.959Z,3.47
2017-06-10T00:59:34.120Z,4.70
2017-06-10T01:02:00.308Z,4.07
2017-06-10T01:04:26.468Z,4.60
2017-06-10T01:06:52.645Z,5.00
2017-06-10T01:09:19.123Z,4.30
2017-06-10T01:11:45.320Z,5.00
2017-06-10T01:14:11.516Z,4.93
2017-06-10T01:16:37.800Z,5.63
2017-06-10T01:19:03.937Z,5.20
2017-06-10T01:21:31.262Z,7.80
2017-06-10T01:23:57.411Z,6.13
2017-06-10T01:26:24.360Z,6.17
2017-06-10T01:28:50.508Z,6.70
2017-06-10T01:31:16.679Z,5.80
2017-06-10T01:33:43.217Z,6.33
2017-06-10T01:36:09.428Z,6.20
2017-06-10T01:38:35.721Z,6.70
2017-06-10T01:41:01.941Z,5.90
2017-06-10T01:43:28.145Z,4.37
2017-06-10T01:45:54.790Z,7.20
2017-06-10T01:48:20.969Z,5.30
2017-06-10T01:50:47.129Z,6.20
2017-06-10T01:53:13.329Z,5.57
2017-06-10T01:55:39.545Z,6.10
2017-06-10T01:58:06.113Z,5.13
2017-06-10T02:00:32.366Z,6.03
2017-06-10T02:02:58.492Z,5.33
2017-06-10T02:05:24.628Z,5.90
2017-06-10T02:07:50.823Z,5.10
2017-06-10T02:10:17.284Z,5.80
2017-06-10T02:12:43.428Z,5.50
2017-06-10T02:15:10.352Z,8.87
2017-06-10T02:17:36.559Z,6.50
2017-06-10T02:20:02.700Z,11.63
2017-06-10T02:22:29.218Z,7.40
2017-06-10T02:24:55.358Z,6.00
2017-06-10T02:27:21.571Z,6.80
2017-06-10T02:29:47.664Z,7.07
2017-06-10T02:32:13.824Z,7.00
2017-06-10T02:34:40.406Z,8.60
2017-06-10T02:37:06.661Z,7.00
2017-06-10T02:39:32.828Z,7.10
2017-06-10T02:41:58.960Z,10.23
2017-06-10T02:44:25.152Z,9.77
2017-06-10T02:46:51.731Z,10.83
2017-06-10T02:49:17.884Z,8.33
2017-06-10T02:51:44.806Z,11.13
2017-06-10T02:54:11.018Z,8.97
2017-06-10T02:56:37.230Z,10.33
2017-06-10T02:59:03.714Z,9.53
2017-06-10T03:01:29.836Z,9.40
2017-06-10T03:03:55.989Z,9.70
2017-06-10T03:06:22.214Z,10.80
2017-06-10T03:08:48.349Z,9.20
2017-06-10T03:11:15.247Z,10.60
2017-06-10T03:13:41.437Z,9.90
2017-06-10T03:16:07.593Z,12.70
2017-06-10T03:18:33.712Z,10.17
2017-06-10T03:21:00.179Z,15.40
2017-06-10T03:23:26.312Z,10.23
2017-06-10T03:25:52.468Z,9.10
2017-06-10T03:28:19.041Z,8.60
2017-06-10T03:30:45.168Z,8.70
2017-06-10T03:33:11.347Z,7.33
2017-06-10T03:35:37.502Z,8.80
2017-06-10T03:38:03.694Z,7.70
2017-06-10T03:40:31.054Z,9.30
2017-06-10T03:42:57.159Z,11.20
2017-06-10T03:45:23.317Z,11.90
2017-06-10T03:47:49.477Z,8.77
2017-06-10T03:50:15.743Z,8.43
2017-06-10T03:52:42.160Z,11.23
2017-06-10T03:55:08.352Z,10.23
2017-06-10T03:57:34.461Z,9.70
2017-06-10T04:00:00.618Z,12.30
2017-06-10T04:02:26.801Z,10.03
2017-06-10T04:04:54.122Z,9.07
2017-06-10T04:07:20.277Z,8.47
2017-06-10T04:09:47.153Z,14.93
2017-06-10T04:12:13.477Z,8.23
2017-06-10T04:14:39.553Z,11.77
2017-06-10T04:17:06.095Z,8.83
2017-06-10T04:19:32.272Z,9.77
2017-06-10T04:21:58.372Z,10.53
2017-06-10T04:24:24.541Z,12.57
2017-06-10T04:26:50.657Z,8.40
2017-06-10T04:29:17.065Z,9.03
2017-06-10T04:31:43.205Z,9.70
2017-06-10T04:34:09.489Z,12.20
2017-06-10T04:36:35.676Z,12.90
2017-06-10T04:39:01.789Z,6.70
2017-06-10T04:41:28.361Z,11.70
2017-06-10T04:43:54.551Z,10.60
2017-06-10T04:46:20.750Z,11.23
2017-06-10T04:48:46.872Z,10.97
2017-06-10T04:51:13.041Z,6.73
2017-06-10T04:53:39.509Z,9.77
2017-06-10T04:56:05.726Z,13.37
2017-06-10T04:58:31.883Z,10.00
2017-06-10T05:00:58.002Z,18.53
2017-06-10T05:03:24.171Z,9.90
2017-06-10T05:05:50.637Z,9.87
2017-06-10T05:08:16.800Z,12.73
2017-06-10T05:10:43.444Z,10.77
2017-06-10T05:13:09.751Z,7.13
2017-06-10T05:15:35.928Z,7.47
2017-06-10T05:18:02.612Z,10.40
2017-06-10T05:20:28.797Z,16.10
2017-06-10T05:22:54.915Z,7.13
2017-06-10T05:25:21.112Z,8.77
2017-06-10T05:27:47.301Z,11.30
2017-06-10T05:30:13.754Z,12.17
2017-06-10T05:32:39.846Z,12.37
2017-06-10T05:35:05.982Z,9.23
2017-06-10T05:37:32.154Z,11.50
2017-06-10T05:39:58.368Z,9.00
2017-06-10T05:42:24.899Z,11.70
2017-06-10T05:44:51.004Z,9.87
2017-06-10T05:47:17.101Z,13.13
2017-06-10T05:49:44.023Z,10.70
2017-06-10T05:52:10.170Z,7.33
2017-06-10T05:54:37.502Z,10.13
2017-06-10T05:57:03.676Z,8.20
2017-06-10T05:59:29.831Z,10.90
2017-06-10T06:01:56.852Z,8.53
2017-06-10T06:04:23.008Z,9.70
2017-06-10T06:06:50.274Z,9.37
2017-06-10T06:09:16.369Z,7.27
2017-06-10T06:11:42.461Z,12.73
2017-06-10T06:14:08.611Z,13.23
2017-06-10T06:16:34.762Z,7.63
2017-06-10T06:19:01.189Z,10.20
2017-06-10T06:21:27.365Z,7.97
2017-06-10T06:23:53.697Z,9.37
2017-06-10T06:26:19.860Z,10.13
2017-06-10T06:28:45.991Z,8.00
2017-06-10T06:31:12.540Z,9.37
2017-06-10T06:33:38.712Z,18.97
2017-06-10T06:36:04.811Z,10.97
2017-06-10T06:38:30.942Z,10.63
2017-06-10T06:40:57.138Z,10.27
2017-06-10T06:43:23.584Z,6.23
2017-06-10T06:45:49.788Z,8.40
2017-06-10T06:48:15.936Z,10.97
2017-06-10T06:50:42.097Z,8.43
2017-06-10T06:53:09.026Z,12.70
2017-06-10T06:55:35.650Z,10.07
2017-06-10T06:58:01.809Z,18.20
2017-06-10T07:00:28.737Z,10.23
2017-06-10T07:02:54.944Z,6.33
2017-06-10T07:05:21.114Z,8.50
2017-06-10T07:07:48.383Z,9.00
2017-06-10T07:10:14.528Z,6.37
2017-06-10T07:12:40.636Z,9.13
2017-06-10T07:15:07.547Z,8.23
2017-06-10T07:17:34.634Z,12.80
2017-06-10T07:20:01.210Z,7.67
2017-06-10T07:22:27.350Z,6.53
2017-06-10T07:24:53.462Z,5.13
2017-06-10T07:27:19.627Z,6.43
2017-06-10T07:29:45.779Z,8.73
2017-06-10T07:32:12.236Z,7.43
2017-06-10T07:34:38.380Z,10.40
2017-06-10T07:37:04.482Z,8.50
2017-06-10T07:39:30.665Z,6.07
2017-06-10T07:41:56.768Z,8.40
2017-06-10T07:44:22.904Z,11.07
2017-06-10T07:46:49.335Z,7.93
2017-06-10T07:49:15.519Z,8.33
2017-06-10T07:51:41.856Z,10.83
2017-06-10T07:54:08.262Z,10.67
2017-06-10T07:56:34.426Z,9.43
2017-06-10T07:59:00.646Z,7.23
2017-06-10T08:01:26.772Z,5.90
2017-06-10T08:03:52.907Z,9.43
2017-06-10T08:06:19.391Z,12.33
2017-06-10T08:08:45.482Z,9.30
2017-06-10T08:11:11.650Z,10.77
2017-06-10T08:13:37.945Z,11.80
2017-06-10T08:16:04.117Z,7.93
2017-06-10T08:18:30.716Z,8.47
2017-06-10T08:20:56.854Z,9.67
2017-06-10T08:23:23.033Z,5.13
2017-06-10T08:25:49.201Z,9.20
2017-06-10T08:28:15.429Z,5.00
2017-06-10T08:30:57.009Z,8.53
2017-06-10T08:33:23.205Z,10.37
2017-06-10T08:35:49.533Z,8.13
2017-06-10T08:38:15.723Z,7.53
2017-06-10T08:40:41.884Z,9.63
2017-06-10T08:43:08.317Z,9.80
2017-06-10T08:45:34.430Z,6.63
2017-06-10T08:48:00.609Z,8.17
2017-06-10T08:50:26.839Z,7.33
2017-06-10T08:52:53.044Z,14.23
2017-06-10T08:55:19.473Z,5.23
2017-06-10T08:57:45.796Z,4.83
2017-06-10T09:00:11.976Z,5.83
2017-06-10T09:02:38.135Z,6.43
2017-06-10T09:05:05.022Z,9.60
2017-06-10T09:07:31.513Z,8.70
2017-06-10T09:09:57.642Z,5.47
2017-06-10T09:12:23.824Z,6.00
2017-06-10T09:14:50.049Z,9.10
2017-06-10T09:17:16.215Z,3.60
2017-06-10T09:19:42.841Z,7.40
2017-06-10T09:22:09.004Z,6.63
2017-06-10T09:24:35.182Z,4.23
2017-06-10T09:27:01.377Z,5.13
2017-06-10T09:29:27.587Z,5.40
2017-06-10T09:31:54.170Z,8.20
2017-06-10T09:34:20.369Z,11.07
2017-06-10T09:36:46.575Z,4.77
2017-06-10T09:39:12.758Z,11.87
2017-06-10T09:41:38.901Z,7.40
2017-06-10T09:44:05.324Z,7.23
2017-06-10T09:46:31.498Z,7.20
2017-06-10T09:48:57.689Z,5.37
2017-06-10T09:51:23.925Z,8.23
2017-06-10T09:53:50.807Z,5.70
2017-06-10T09:56:17.306Z,3.70
2017-06-10T09:58:43.484Z,6.43
2017-06-10T10:01:09.688Z,4.47
2017-06-10T10:03:35.964Z,6.47
2017-06-10T10:06:02.139Z,5.90
2017-06-10T10:08:28.800Z,7.00
2017-06-10T10:10:55.006Z,5.80
2017-06-10T10:13:21.149Z,6.70
2017-06-10T10:15:47.277Z,7.00
2017-06-10T10:18:13.451Z,5.47
2017-06-10T10:20:39.957Z,4.60
2017-06-10T10:23:06.189Z,7.40
2017-06-10T10:25:32.509Z,6.60
2017-06-10T10:27:58.650Z,5.50
2017-06-10T10:30:24.833Z,4.73
2017-06-10T10:32:51.314Z,4.10
2017-06-10T10:35:17.450Z,2.60
2017-06-10T10:37:43.567Z,8.60
2017-06-10T10:40:09.666Z,5.30
2017-06-10T10:42:35.773Z,4.20
2017-06-10T10:45:02.250Z,5.40
2017-06-10T10:47:28.504Z,5.63
2017-06-10T10:49:54.739Z,3.60
2017-06-10T10:52:20.920Z,4.77
2017-06-10T10:54:47.113Z,9.03
2017-06-10T10:57:14.425Z,7.83
2017-06-10T10:59:40.603Z,4.40
2017-06-10T11:02:07.593Z,3.50
2017-06-10T11:04:33.809Z,4.67
2017-06-10T11:06:59.946Z,5.10
2017-06-10T11:09:26.385Z,8.00
2017-06-10T11:11:52.576Z,3.30
2017-06-10T11:14:18.725Z,2.60
2017-06-10T11:16:44.926Z,2.43
2017-06-10T11:19:11.156Z,2.47
2017-06-10T11:21:37.601Z,5.20
2017-06-10T11:24:03.745Z,6.97
2017-06-10T11:26:29.918Z,5.27
2017-06-10T11:28:56.938Z,4.97
2017-06-10T11:31:23.192Z,8.00
2017-06-10T11:33:50.395Z,7.77
2017-06-10T11:36:16.627Z,4.10
2017-06-10T11:38:42.821Z,3.60
2017-06-10T11:41:09.048Z,6.60
2017-06-10T11:43:35.173Z,4.90
2017-06-10T11:46:01.686Z,4.73
2017-06-10T11:48:27.885Z,5.37
2017-06-10T11:50:54.173Z,5.90
2017-06-10T11:53:20.395Z,4.60
2017-06-10T11:55:46.587Z,6.50
2017-06-10T11:58:13.261Z,5.43
2017-06-10T12:00:39.374Z,5.30
2017-06-10T12:03:05.631Z,5.83
2017-06-10T12:05:31.770Z,6.00
2017-06-10T12:07:57.905Z,3.33
2017-06-10T12:10:24.091Z,2.70
2017-06-10T12:12:51.437Z,5.33
2017-06-10T12:15:17.594Z,5.60
2017-06-10T12:17:43.757Z,6.83
2017-06-10T12:20:10.240Z,4.30
2017-06-10T12:22:36.402Z,6.77
2017-06-10T12:25:02.623Z,6.80
2017-06-10T12:27:29.177Z,6.33
2017-06-10T12:29:55.390Z,5.10
2017-06-10T12:32:21.553Z,9.30
2017-06-10T12:34:47.978Z,5.13
2017-06-10T12:37:14.199Z,4.50
2017-06-10T12:39:40.730Z,4.13
2017-06-10T12:42:06.911Z,5.70
2017-06-10T12:44:33.860Z,6.43
2017-06-10T12:47:00.083Z,7.70
2017-06-10T12:49:26.229Z,4.17
2017-06-10T12:51:52.697Z,7.40
2017-06-10T12:54:18.832Z,5.40
2017-06-10T12:56:44.972Z,3.73
2017-06-10T12:59:11.250Z,4.10
2017-06-10T13:01:37.461Z,5.10
2017-06-10T13:04:03.973Z,5.60
2017-06-10T13:06:30.893Z,3.33
2017-06-10T13:08:57.082Z,7.13
2017-06-10T13:11:23.254Z,3.43
2017-06-10T13:13:49.386Z,5.23
2017-06-10T13:16:16.034Z,6.30
2017-06-10T13:18:43.929Z,8.27
2017-06-10T13:21:11.084Z,3.33
2017-06-10T13:23:38.010Z,3.27
2017-06-10T13:26:04.154Z,6.47
2017-06-10T13:28:30.639Z,6.50
2017-06-10T13:30:56.854Z,4.77
2017-06-10T13:33:23.069Z,4.43
2017-06-10T13:35:49.357Z,4.13
2017-06-10T13:38:15.445Z,4.00
2017-06-10T13:40:41.959Z,3.20
2017-06-10T13:43:08.114Z,3.83
2017-06-10T13:45:34.842Z,3.33
2017-06-10T13:48:01.161Z,4.87
2017-06-10T13:50:27.313Z,4.00
2017-06-10T13:52:53.942Z,4.27
2017-06-10T13:55:20.106Z,6.23
2017-06-10T13:57:46.224Z,5.10
2017-06-10T14:00:12.393Z,3.20
2017-06-10T14:02:38.742Z,4.30
2017-06-10T14:05:05.280Z,4.77
2017-06-10T14:07:31.615Z,4.90
2017-06-10T14:10:00.592Z,4.17
2017-06-10T14:12:26.854Z,4.30
2017-06-10T14:14:54.086Z,4.03
2017-06-10T14:17:20.529Z,5.80
2017-06-10T14:19:46.651Z,5.53
2017-06-10T14:22:12.802Z,2.73
2017-06-10T14:24:39.062Z,3.67
2017-06-10T14:27:05.432Z,6.63
2017-06-10T14:29:32.130Z,3.90
2017-06-10T14:31:58.305Z,6.50
2017-06-10T14:34:24.704Z,2.83
2017-06-10T14:36:51.760Z,2.10
2017-06-10T14:39:17.997Z,3.30
2017-06-10T14:41:44.447Z,4.50
2017-06-10T14:44:10.699Z,6.80
2017-06-10T14:46:37.070Z,5.20
2017-06-10T14:49:03.274Z,3.33
2017-06-10T14:51:29.453Z,2.80
2017-06-10T14:53:56.054Z,6.00
2017-06-10T14:56:22.179Z,5.27
2017-06-10T14:58:49.079Z,4.47
2017-06-10T15:01:15.296Z,3.97
2017-06-10T15:03:41.421Z,4.83
2017-06-10T15:06:07.984Z,3.53
2017-06-10T15:08:34.254Z,3.23
2017-06-10T15:11:00.413Z,4.57
2017-06-10T15:13:26.526Z,2.23
2017-06-10T15:15:52.662Z,5.33
2017-06-10T15:18:19.123Z,5.90
2017-06-10T15:20:45.309Z,2.83
2017-06-10T15:23:11.488Z,2.13
2017-06-10T15:25:37.694Z,4.10
2017-06-10T15:28:03.800Z,3.53
2017-06-10T15:30:30.461Z,3.70
2017-06-10T15:32:56.640Z,3.30
2017-06-10T15:35:22.886Z,2.73
2017-06-10T15:37:49.005Z,2.93
2017-06-10T15:40:15.354Z,3.87
2017-06-10T15:42:41.933Z,7.37
2017-06-10T15:45:08.866Z,5.20
2017-06-10T15:47:35.041Z,2.90
2017-06-10T15:50:01.961Z,4.90
2017-06-10T15:52:28.231Z,4.23
2017-06-10T15:54:54.835Z,5.70
2017-06-10T15:57:20.989Z,3.30
2017-06-10T15:59:47.199Z,7.93
2017-06-10T16:02:13.470Z,3.10
2017-06-10T16:04:39.617Z,3.83
2017-06-10T16:07:06.193Z,3.67
2017-06-10T16:09:32.298Z,3.50
2017-06-10T16:11:58.448Z,2.30
2017-06-10T16:14:24.733Z,5.00
2017-06-10T16:16:50.840Z,7.47
2017-06-10T16:19:16.989Z,3.10
2017-06-10T16:21:43.169Z,3.57
2017-06-10T16:24:09.317Z,9.40
2017-06-10T16:26:36.608Z,3.37
2017-06-10T16:29:03.258Z,4.03
2017-06-10T16:31:29.422Z,5.33
2017-06-10T16:34:10.857Z,3.20
2017-06-10T16:36:37.006Z,2.87
2017-06-10T16:39:03.906Z,3.93
2017-06-10T16:41:30.095Z,3.90
2017-06-10T16:43:57.013Z,3.57
2017-06-10T16:46:23.168Z,4.50
2017-06-10T16:48:50.053Z,5.17
2017-06-10T16:51:16.175Z,3.03
2017-06-10T16:53:42.307Z,4.53
2017-06-10T16:56:08.962Z,4.30
2017-06-10T16:58:35.105Z,5.67
2017-06-10T17:01:01.249Z,2.50
2017-06-10T17:03:42.645Z,3.60
2017-06-10T17:06:08.818Z,5.67
2017-06-10T17:08:35.462Z,3.93
2017-06-10T17:11:01.636Z,3.77
2017-06-10T17:13:43.080Z,9.33
2017-06-10T17:16:09.309Z,3.10
2017-06-10T17:18:35.435Z,3.87
2017-06-10T17:21:01.622Z,4.10
2017-06-10T17:23:27.793Z,5.60
2017-06-10T17:25:54.444Z,2.80
2017-06-10T17:28:20.593Z,3.20
2017-06-10T17:30:47.426Z,5.33
2017-06-10T17:33:14.314Z,5.60
2017-06-10T17:35:40.438Z,5.70
2017-06-10T17:38:06.636Z,5.57
2017-06-10T17:40:33.777Z,5.20
2017-06-10T17:43:00.622Z,3.93
2017-06-10T17:45:27.552Z,3.90
2017-06-10T17:47:54.190Z,3.10
2017-06-10T17:50:20.384Z,5.40
2017-06-10T17:52:46.534Z,9.47
2017-06-10T17:55:13.053Z,5.57
2017-06-10T17:57:39.239Z,4.03
2017-06-10T18:00:06.169Z,3.20
2017-06-10T18:02:32.299Z,2.03
2017-06-10T18:04:59.216Z,2.83
2017-06-10T18:07:25.751Z,7.90
2017-06-10T18:09:52.986Z,7.60
2017-06-10T18:12:19.183Z,5.47
2017-06-10T18:14:45.381Z,3.43
2017-06-10T18:17:11.522Z,2.77
2017-06-10T18:19:38.023Z,7.97
2017-06-10T18:22:05.137Z,4.50
2017-06-10T18:24:31.334Z,4.27
2017-06-10T18:27:15.289Z,3.73
2017-06-10T18:29:41.447Z,3.57
2017-06-10T18:32:08.006Z,8.67
2017-06-10T18:34:34.169Z,2.20
2017-06-10T18:37:00.301Z,4.43
2017-06-10T18:39:26.488Z,3.10
2017-06-10T18:41:52.699Z,8.70
2017-06-10T18:44:19.218Z,5.63
2017-06-10T18:46:45.341Z,8.23
2017-06-10T18:49:11.497Z,4.27
2017-06-10T18:51:37.687Z,3.17
2017-06-10T18:54:03.893Z,3.73
2017-06-10T18:56:30.480Z,6.80
2017-06-10T18:58:56.649Z,11.37
2017-06-10T19:01:22.776Z,3.00
2017-06-10T19:03:48.940Z,3.87
2017-06-10T19:06:15.222Z,3.97
2017-06-10T19:08:41.709Z,7.27
2017-06-10T19:11:07.831Z,4.10
2017-06-10T19:13:34.006Z,3.13
2017-06-10T19:16:00.238Z,5.60
2017-06-10T19:18:27.178Z,5.00
2017-06-10T19:20:53.578Z,5.13
2017-06-10T19:23:19.729Z,3.80
2017-06-10T19:25:46.592Z,5.57
2017-06-10T19:28:12.933Z,4.57
2017-06-10T19:30:39.089Z,7.73
2017-06-10T19:33:05.553Z,6.03
2017-06-10T19:35:31.731Z,5.20
2017-06-10T19:37:57.884Z,5.50
2017-06-10T19:40:24.125Z,6.63
2017-06-10T19:42:50.281Z,4.50
2017-06-10T19:45:16.891Z,4.77
2017-06-10T19:47:43.065Z,7.30
2017-06-10T19:50:09.416Z,4.20
2017-06-10T19:52:35.583Z,6.33
2017-06-10T19:55:01.713Z,4.00
2017-06-10T19:57:28.269Z,5.10
2017-06-10T19:59:54.466Z,3.83
2017-06-10T20:02:20.645Z,4.47
2017-06-10T20:04:47.571Z,6.80
2017-06-10T20:07:13.736Z,5.63
2017-06-10T20:09:40.954Z,7.00
2017-06-10T20:12:07.301Z,8.13
2017-06-10T20:14:33.474Z,8.37
2017-06-10T20:16:59.605Z,7.10
2017-06-10T20:19:25.749Z,10.07
2017-06-10T20:21:52.181Z,9.70
2017-06-10T20:24:18.314Z,7.10
2017-06-10T20:26:44.470Z,9.50
2017-06-10T20:29:10.605Z,6.13
2017-06-10T20:31:36.780Z,5.40
2017-06-10T20:34:03.321Z,7.37
2017-06-10T20:36:29.442Z,6.20
2017-06-10T20:38:55.625Z,9.73
2017-06-10T20:41:21.750Z,5.40
2017-06-10T20:43:47.895Z,7.80
2017-06-10T20:46:14.493Z,5.50
2017-06-10T20:48:40.645Z,6.03
2017-06-10T20:51:06.773Z,4.70
2017-06-10T20:53:33.186Z,5.70
2017-06-10T20:55:59.403Z,6.00
2017-06-10T20:58:26.016Z,6.40
2017-06-10T21:00:52.148Z,6.70
2017-06-10T21:03:18.304Z,6.40
2017-06-10T21:05:44.456Z,8.97
2017-06-10T21:08:10.591Z,6.30
2017-06-10T21:10:37.184Z,5.60
2017-06-10T21:13:03.345Z,6.87
2017-06-10T21:15:29.505Z,6.43
2017-06-10T21:17:56.566Z,9.97
2017-06-10T21:20:22.767Z,4.90
2017-06-10T21:22:49.345Z,5.80
2017-06-10T21:25:15.508Z,4.80
2017-06-10T21:27:41.726Z,10.93
2017-06-10T21:30:08.643Z,5.50
2017-06-10T21:32:34.803Z,6.10
2017-06-10T21:35:01.283Z,7.70
2017-06-10T21:37:27.420Z,7.00
2017-06-10T21:39:53.859Z,6.20
2017-06-10T21:42:20.094Z,4.90
2017-06-10T21:44:47.053Z,6.83
2017-06-10T21:47:13.656Z,10.87
2017-06-10T21:49:39.788Z,8.93
2017-06-10T21:52:05.979Z,8.27
2017-06-10T21:54:32.165Z,8.90
2017-06-10T21:56:58.358Z,8.57
2017-06-10T21:59:24.831Z,7.70
2017-06-10T22:01:51.085Z,6.83
2017-06-10T22:04:17.245Z,7.03
2017-06-10T22:06:43.445Z,9.53
2017-06-10T22:09:09.594Z,8.43
2017-06-10T22:11:35.780Z,19.73
2017-06-10T22:14:01.935Z,14.13
2017-06-10T22:16:28.985Z,13.73
2017-06-10T22:18:55.215Z,14.43
2017-06-10T22:21:21.425Z,10.73
2017-06-10T22:23:47.598Z,8.80
2017-06-10T22:26:13.738Z,7.37
2017-06-10T22:28:39.949Z,10.87
2017-06-10T22:31:06.233Z,8.90
2017-06-10T22:33:32.422Z,11.43
2017-06-10T22:35:58.590Z,12.13
2017-06-10T22:38:24.771Z,7.30
2017-06-10T22:40:50.878Z,8.13
2017-06-10T22:43:17.276Z,9.23
2017-06-10T22:45:43.563Z,9.90
2017-06-10T22:48:09.686Z,10.03
2017-06-10T22:50:36.591Z,17.63
2017-06-10T22:53:02.756Z,12.27
2017-06-10T22:55:28.979Z,9.97
2017-06-10T22:57:55.261Z,10.87
2017-06-10T23:00:22.144Z,10.37
2017-06-10T23:02:48.310Z,12.40
2017-06-10T23:05:14.705Z,11.53
2017-06-10T23:07:40.860Z,9.70
2017-06-10T23:10:07.061Z,13.53
2017-06-10T23:12:33.225Z,11.50
2017-06-10T23:15:00.129Z,12.97
2017-06-10T23:17:26.358Z,10.03
2017-06-10T23:20:07.472Z,8.50
2017-06-10T23:22:34.592Z,10.10
2017-06-10T23:25:00.786Z,9.23
2017-06-10T23:27:27.073Z,8.87
2017-06-10T23:29:53.284Z,9.27
2017-06-10T23:32:19.445Z,11.00
2017-06-10T23:34:45.622Z,11.27
2017-06-10T23:37:11.775Z,10.67
2017-06-10T23:39:37.925Z,12.53
2017-06-10T23:42:04.093Z,14.60
2017-06-10T23:44:30.254Z,9.97
2017-06-10T23:46:56.897Z,9.47
2017-06-10T23:49:23.177Z,9.90
2017-06-10T23:51:49.365Z,9.80
2017-06-10T23:54:15.534Z,10.60
2017-06-10T23:56:41.735Z,11.83
2017-06-10T23:59:07.919Z,13.60
